Time;durP1;ratioP1;P1;durP2;ratioP2;P2;SDS_P1;SDS_P2;PMS_P1;PMS_P2;Temp;Humidity;BMP_temperature;BMP_pressure;BME280_temperature;BME280_humidity;BME280_pressure;Samples;Min_cycle;Max_cycle;Signal;HPM_P1;HPM_P2
2021/01/04 00:02:21;;;;;;;33.05;17.45;;;;;;;1.29;88.07;102009.33;1772231;79;20963;-36
2021/01/04 00:05:00;;;;;;;30.10;15.95;;;;;;;1.26;87.99;102007.53;1818026;79;21018;-36
2021/01/04 00:07:50;;;;;;;30.37;15.68;;;;;;;1.23;88.01;102008.64;1818089;79;20915;-37
2021/01/04 00:10:56;;;;;;;29.02;16.25;;;;;;;1.21;87.98;102010.67;1818108;78;20980;-35
2021/01/04 00:13:41;;;;;;;37.65;17.67;;;;;;;1.21;88.01;102003.02;1818145;79;21188;-35
2021/01/04 00:16:27;;;;;;;35.43;17.55;;;;;;;1.20;88.06;102011.05;1818252;79;20880;-36
2021/01/04 00:19:03;;;;;;;38.37;18.20;;;;;;;1.21;88.08;102004.30;1800511;79;21118;-36
2021/01/04 00:21:46;;;;;;;33.65;16.95;;;;;;;1.20;88.07;101997.45;1818145;78;21293;-35
2021/01/04 00:24:50;;;;;;;29.87;15.95;;;;;;;1.19;88.04;101997.83;1818071;79;20896;-37
2021/01/04 00:27:51;;;;;;;26.57;15.88;;;;;;;1.18;88.07;101989.70;1818076;79;21265;-37
2021/01/04 00:30:26;;;;;;;31.02;16.50;;;;;;;1.17;88.14;101993.06;1818001;79;20994;-35
2021/01/04 00:32:58;;;;;;;26.85;14.55;;;;;;;1.14;88.16;101990.00;1818277;78;21422;-35
2021/01/04 00:35:26;;;;;;;25.85;13.25;;;;;;;1.15;88.12;101988.30;1818154;79;22192;-35
2021/01/04 00:38:51;;;;;;;26.10;13.83;;;;;;;1.18;88.09;101990.98;1818095;79;21025;-36
2021/01/04 00:41:24;;;;;;;26.42;14.40;;;;;;;1.20;88.07;101988.52;1818118;79;21473;-35
2021/01/04 00:43:55;;;;;;;31.10;15.58;;;;;;;1.20;88.11;101983.41;1815081;79;20938;-36
2021/01/04 00:46:37;;;;;;;27.00;14.20;;;;;;;1.17;88.14;101978.18;1818126;79;20880;-36
2021/01/04 00:52:20;;;;;;;24.75;13.78;;;;;;;1.24;88.19;101987.84;1777115;79;22102;-35
2021/01/04 00:55:16;;;;;;;28.83;14.95;;;;;;;1.20;88.23;101988.52;1749700;82;21200;-36
2021/01/04 00:58:12;;;;;;;30.30;15.48;;;;;;;1.20;88.26;101988.09;1749924;82;22492;-36
2021/01/04 01:01:04;;;;;;;28.25;14.90;;;;;;;1.18;88.35;101982.47;1749767;82;20943;-37
2021/01/04 01:03:38;;;;;;;30.43;15.55;;;;;;;1.17;88.44;101989.23;1720701;82;21086;-37
2021/01/04 01:06:20;;;;;;;31.45;16.42;;;;;;;1.16;88.47;101984.09;1749841;81;20975;-37
2021/01/04 01:08:53;;;;;;;32.60;15.93;;;;;;;1.16;88.50;101985.36;1749653;81;20998;-37
2021/01/04 01:11:57;;;;;;;28.67;16.30;;;;;;;1.16;88.54;101977.70;1749259;82;21119;-36
2021/01/04 01:15:07;;;;;;;37.42;15.48;;;;;;;1.18;88.53;101977.38;1749782;81;21005;-36
2021/01/04 01:18:07;;;;;;;31.25;16.10;;;;;;;1.18;88.61;101970.58;1749463;82;21050;-37
2021/01/04 01:20:42;;;;;;;28.07;16.07;;;;;;;1.14;88.69;101973.41;1749604;82;21003;-36
2021/01/04 01:23:11;;;;;;;32.73;17.35;;;;;;;1.13;88.82;101981.84;1748309;80;21004;-37
2021/01/04 01:25:50;;;;;;;31.15;17.35;;;;;;;1.15;88.79;101975.55;1749755;82;21370;-37
2021/01/04 01:28:53;;;;;;;45.23;19.30;;;;;;;1.15;88.78;101967.89;1716781;82;21489;-37
2021/01/04 01:31:39;;;;;;;46.65;21.37;;;;;;;1.16;88.81;101966.23;1749708;82;20928;-38
2021/01/04 01:34:20;;;;;;;43.92;20.60;;;;;;;1.16;88.87;101959.85;1749723;82;20931;-36
2021/01/04 01:37:36;;;;;;;35.60;17.82;;;;;;;1.12;88.83;101968.61;1749645;82;20975;-35
2021/01/04 01:40:15;;;;;;;36.50;18.37;;;;;;;1.10;88.96;101960.02;1749715;82;21488;-36
2021/01/04 01:43:14;;;;;;;37.45;18.42;;;;;;;1.10;89.07;101964.27;1749631;81;21018;-36
2021/01/04 01:46:07;;;;;;;41.23;19.85;;;;;;;1.07;89.08;101962.86;1749542;81;20919;-35
2021/01/04 01:49:22;;;;;;;38.48;17.82;;;;;;;1.04;89.08;101963.58;1742297;82;20998;-37
2021/01/04 01:52:27;;;;;;;40.38;20.30;;;;;;;1.05;89.13;101966.60;1738037;81;20967;-36
2021/01/04 01:55:18;;;;;;;48.85;19.73;;;;;;;1.03;89.18;101960.56;1714865;82;21673;-35
2021/01/04 01:57:57;;;;;;;41.30;19.73;;;;;;;1.02;89.20;101957.54;1736512;82;21086;-35
2021/01/04 02:00:35;;;;;;;57.30;25.52;;;;;;;1.02;89.18;101952.86;1736524;82;20976;-36
2021/01/04 02:03:11;;;;;;;62.53;27.37;;;;;;;1.02;89.15;101944.79;1736060;82;21015;-35
2021/01/04 02:06:24;;;;;;;58.28;25.30;;;;;;;0.99;89.17;101944.23;1735965;81;20928;-35
2021/01/04 02:09:16;;;;;;;46.90;22.02;;;;;;;0.97;89.15;101944.99;1735953;82;21221;-36
2021/01/04 02:11:52;;;;;;;44.18;20.82;;;;;;;0.93;89.22;101941.42;1735624;82;21058;-36
2021/01/04 02:14:38;;;;;;;40.20;19.50;;;;;;;0.92;89.25;101951.56;1727536;82;20901;-35
2021/01/04 02:17:25;;;;;;;50.38;21.75;;;;;;;0.91;89.27;101934.10;1736072;82;21376;-35
2021/01/04 02:20:23;;;;;;;46.68;21.30;;;;;;;0.90;89.30;101951.48;1735945;82;21032;-36
2021/01/04 02:23:09;;;;;;;37.38;19.48;;;;;;;0.89;89.35;101951.44;1713989;82;22136;-36
2021/01/04 02:25:39;;;;;;;42.40;20.35;;;;;;;0.90;89.31;101952.76;1735933;82;20896;-37
2021/01/04 02:28:11;;;;;;;48.35;21.23;;;;;;;0.89;89.36;101948.46;1715302;82;21150;-37
2021/01/04 02:30:39;;;;;;;47.45;20.65;;;;;;;0.88;89.29;101945.83;1735909;82;20921;-35
2021/01/04 02:33:07;;;;;;;48.92;20.00;;;;;;;0.86;89.33;101939.41;1735968;82;20979;-36
2021/01/04 02:35:37;;;;;;;45.05;21.73;;;;;;;0.88;89.27;101922.50;1736046;82;21423;-35
2021/01/04 02:38:06;;;;;;;45.08;20.75;;;;;;;0.86;89.24;101925.38;1735872;82;21003;-36
2021/01/04 02:40:35;;;;;;;43.42;22.32;;;;;;;0.84;89.21;101926.57;1735932;81;21003;-35
2021/01/04 02:43:04;;;;;;;47.58;20.68;;;;;;;0.82;89.19;101932.00;1735932;82;21086;-36
2021/01/04 02:45:32;;;;;;;46.00;21.12;;;;;;;0.81;89.13;101938.33;1735987;82;20932;-36
2021/01/04 02:48:44;;;;;;;47.75;22.10;;;;;;;0.78;89.15;101936.50;1735904;82;21209;-36
2021/01/04 02:51:27;;;;;;;44.80;21.60;;;;;;;0.79;89.18;101942.48;1691693;84;21135;-36
2021/01/04 02:54:15;;;;;;;48.08;21.60;;;;;;;0.79;89.16;101937.39;1691974;84;21090;-38
2021/01/04 02:57:07;;;;;;;47.17;22.22;;;;;;;0.81;89.17;101952.35;1890219;76;22719;-34
2021/01/04 02:59:53;;;;;;;49.80;22.77;;;;;;;0.78;89.17;101942.88;1861130;77;20915;-36
2021/01/04 03:02:38;;;;;;;49.00;22.73;;;;;;;0.78;89.21;101944.56;1861124;77;21201;-36
2021/01/04 03:05:09;;;;;;;48.33;23.75;;;;;;;0.76;89.20;101945.76;1861182;77;20954;-35
2021/01/04 03:07:37;;;;;;;48.35;21.55;;;;;;;0.77;89.25;101946.65;1861165;77;21501;-35
2021/01/04 03:10:19;;;;;;;47.05;21.93;;;;;;;0.78;89.22;101940.74;1861106;77;20926;-36
2021/01/04 03:12:52;;;;;;;57.50;23.70;;;;;;;0.78;89.26;101936.92;1861053;77;20970;-35
2021/01/04 03:15:43;;;;;;;45.43;23.40;;;;;;;0.77;89.29;101937.30;1823124;78;21582;-36
2021/01/04 03:18:33;;;;;;;45.98;22.13;;;;;;;0.79;89.30;101945.04;1823195;78;20934;-36
2021/01/04 03:21:02;;;;;;;42.53;20.32;;;;;;;0.79;89.32;101952.69;1823269;78;20979;-34
2021/01/04 03:23:30;;;;;;;43.28;20.48;;;;;;;0.77;89.35;101955.15;1823218;78;20905;-36
2021/01/04 03:26:13;;;;;;;44.83;23.27;;;;;;;0.77;89.38;101949.20;1823298;78;21007;-37
2021/01/04 03:28:41;;;;;;;51.02;22.30;;;;;;;0.77;89.39;101946.65;1823316;78;21372;-36
2021/01/04 03:31:10;;;;;;;40.78;20.57;;;;;;;0.78;89.37;101940.33;1823172;78;20937;-36
2021/01/04 03:33:38;;;;;;;44.00;21.20;;;;;;;0.78;89.40;101949.67;1823269;78;20925;-36
2021/01/04 03:36:07;;;;;;;41.10;20.75;;;;;;;0.81;89.41;101950.66;1823200;78;21003;-37
2021/01/04 03:38:35;;;;;;;45.20;22.17;;;;;;;0.80;89.44;101943.81;1823211;78;20976;-36
2021/01/04 03:41:04;;;;;;;43.10;20.52;;;;;;;0.78;89.48;101947.12;1823285;78;21365;-36
2021/01/04 03:43:32;;;;;;;48.80;23.90;;;;;;;0.80;89.47;101951.46;1823266;78;20889;-36
2021/01/04 03:46:01;;;;;;;45.80;22.13;;;;;;;0.80;89.46;101951.46;1823197;78;20984;-35
2021/01/04 03:48:30;;;;;;;47.90;23.65;;;;;;;0.82;89.47;101947.72;1823280;78;21003;-37
2021/01/04 03:50:58;;;;;;;47.48;23.32;;;;;;;0.82;89.51;101961.33;1823252;78;21506;-36
2021/01/04 03:53:27;;;;;;;48.65;23.30;;;;;;;0.81;89.52;101963.41;1823173;78;22143;-35
2021/01/04 03:55:55;;;;;;;43.70;22.02;;;;;;;0.82;89.53;101963.02;1827479;78;21019;-35
2021/01/04 03:58:25;;;;;;;43.78;22.55;;;;;;;0.83;89.48;101970.72;1832600;78;20960;-35
2021/01/04 04:00:54;;;;;;;43.15;22.32;;;;;;;0.82;89.45;101966.42;1832510;78;20979;-37
2021/01/04 04:03:23;;;;;;;39.95;20.80;;;;;;;0.79;89.44;101973.94;1832552;78;21004;-36
2021/01/04 04:05:52;;;;;;;41.15;21.00;;;;;;;0.77;89.45;101975.55;1832520;78;21198;-35
2021/01/04 04:08:20;;;;;;;42.88;21.25;;;;;;;0.76;89.42;101975.08;1831934;78;20924;-36
2021/01/04 04:10:49;;;;;;;41.65;20.00;;;;;;;0.76;89.40;101975.08;1831903;78;20967;-36
2021/01/04 04:13:17;;;;;;;48.73;21.97;;;;;;;0.75;89.42;101985.19;1831950;78;20988;-36
2021/01/04 04:15:46;;;;;;;58.23;24.12;;;;;;;0.75;89.43;101995.00;1831953;78;20979;-36
2021/01/04 04:18:14;;;;;;;56.02;24.57;;;;;;;0.73;89.43;101994.44;1831906;78;21372;-36
2021/01/04 04:20:42;;;;;;;55.25;23.30;;;;;;;0.73;89.42;101991.89;1831973;78;21154;-35
2021/01/04 04:23:11;;;;;;;54.13;24.37;;;;;;;0.74;89.41;101979.23;1831991;78;20908;-36
2021/01/04 04:25:40;;;;;;;46.05;23.15;;;;;;;0.72;89.41;101980.84;1831963;78;21085;-36
2021/01/04 04:28:08;;;;;;;45.90;21.57;;;;;;;0.73;89.37;101986.80;1832022;78;20913;-37
2021/01/04 04:30:36;;;;;;;42.78;23.27;;;;;;;0.73;89.33;101982.97;1832049;78;22753;-36
2021/01/04 04:33:04;;;;;;;47.53;24.20;;;;;;;0.76;89.23;101977.62;1831907;78;21466;-36
2021/01/04 04:35:32;;;;;;;52.23;24.70;;;;;;;0.73;89.28;101974.05;1831890;78;20897;-36
2021/01/04 04:38:01;;;;;;;41.65;22.37;;;;;;;0.73;89.21;101974.05;1831948;78;20972;-36
2021/01/04 04:40:32;;;;;;;46.33;24.02;;;;;;;0.72;89.21;101964.27;1831913;78;20885;-37
2021/01/04 04:43:10;;;;;;;36.93;22.02;;;;;;;0.72;89.21;101973.19;1832043;78;22255;-37
2021/01/04 04:45:39;;;;;;;40.35;22.48;;;;;;;0.72;89.23;101966.81;1831812;78;21004;-36
2021/01/04 04:48:44;;;;;;;44.75;23.30;;;;;;;0.70;89.23;101958.23;1831984;78;20928;-36
2021/01/04 04:51:35;;;;;;;41.02;21.80;;;;;;;0.70;89.22;101953.98;1831887;78;20913;-37
2021/01/04 04:54:24;;;;;;;46.20;23.20;;;;;;;0.70;89.17;101951.86;1831868;78;21023;-35
2021/01/04 04:57:04;;;;;;;44.65;23.73;;;;;;;0.70;89.12;101941.66;1823897;78;21289;-36
2021/01/04 04:59:43;;;;;;;47.62;22.80;;;;;;;0.66;89.11;101946.16;1831821;78;20987;-37
2021/01/04 05:03:07;;;;;;;48.20;22.93;;;;;;;0.65;89.08;101945.68;1831981;78;20908;-36
2021/01/04 05:05:52;;;;;;;43.85;22.42;;;;;;;0.64;89.04;101946.48;1831834;78;21487;-36
2021/01/04 05:08:37;;;;;;;52.05;25.60;;;;;;;0.61;89.05;101947.59;1832006;78;20960;-37
2021/01/04 05:11:05;;;;;;;56.63;26.10;;;;;;;0.57;89.08;101928.33;1831924;78;21361;-36
2021/01/04 05:13:37;;;;;;;50.05;25.30;;;;;;;0.56;89.08;101924.45;1831783;78;21031;-36
2021/01/04 05:16:19;;;;;;;41.15;22.13;;;;;;;0.56;89.02;101923.19;1831892;78;20964;-38
2021/01/04 05:19:09;;;;;;;58.30;27.45;;;;;;;0.55;89.05;101921.02;1831757;78;20988;-37
2021/01/04 05:21:59;;;;;;;53.23;26.65;;;;;;;0.56;89.13;101929.14;1831923;78;20975;-37
2021/01/04 05:25:16;;;;;;;52.93;25.48;;;;;;;0.55;89.21;101923.98;1831880;78;21382;-37
2021/01/04 05:28:05;;;;;;;51.40;25.32;;;;;;;0.56;89.25;101924.04;1831940;78;21067;-35
2021/01/04 05:31:29;;;;;;;57.78;27.30;;;;;;;0.56;89.35;101931.69;1831891;78;20988;-36
2021/01/04 05:34:01;;;;;;;54.58;25.80;;;;;;;0.55;89.43;101929.08;1831853;78;21554;-37
2021/01/04 05:37:01;;;;;;;53.90;26.42;;;;;;;0.54;89.43;101925.65;1831891;78;20904;-38
2021/01/04 05:39:51;;;;;;;54.20;25.70;;;;;;;0.55;89.45;101921.02;1831887;78;21207;-36
2021/01/04 05:43:09;;;;;;;51.00;25.92;;;;;;;0.57;89.43;101920.69;1831719;78;21019;-38
2021/01/04 05:46:07;;;;;;;50.73;26.87;;;;;;;0.55;89.52;101928.66;1831850;78;20916;-36
2021/01/04 05:49:04;;;;;;;60.33;27.50;;;;;;;0.55;89.64;101922.71;1831838;78;20940;-36
2021/01/04 05:51:42;;;;;;;59.30;28.95;;;;;;;0.56;89.58;101917.67;1832021;78;20933;-36
2021/01/04 05:54:12;;;;;;;57.50;28.67;;;;;;;0.58;89.59;101922.85;1831823;78;22147;-38
2021/01/04 05:56:39;;;;;;;62.85;29.15;;;;;;;0.60;89.64;101921.63;1827507;78;21558;-37
2021/01/04 05:59:15;;;;;;;57.65;28.80;;;;;;;0.61;89.66;101929.36;1822551;78;20920;-37
2021/01/04 06:01:45;;;;;;;64.15;26.62;;;;;;;0.65;89.61;101921.47;1822463;78;21008;-37
2021/01/04 06:04:25;;;;;;;63.55;29.05;;;;;;;0.64;89.66;101926.09;1822671;78;21004;-37
2021/01/04 06:07:04;;;;;;;66.75;28.92;;;;;;;0.65;89.72;101924.87;1820392;78;21380;-34
2021/01/04 06:09:32;;;;;;;63.55;29.60;;;;;;;0.64;89.77;101928.64;1822472;78;21007;-35
2021/01/04 06:12:19;;;;;;;58.55;27.60;;;;;;;0.65;89.81;101930.38;1822565;78;20980;-35
2021/01/04 06:14:58;;;;;;;70.28;29.30;;;;;;;0.65;89.76;101924.87;1822456;78;20977;-37
2021/01/04 06:17:36;;;;;;;62.95;29.65;;;;;;;0.68;89.81;101929.25;1822631;78;20976;-36
2021/01/04 06:20:36;;;;;;;73.47;29.72;;;;;;;0.68;89.85;101930.52;1822510;78;21364;-37
2021/01/04 06:23:16;;;;;;;64.85;29.25;;;;;;;0.68;89.90;101939.45;1822460;78;21004;-36
2021/01/04 06:25:47;;;;;;;61.02;30.00;;;;;;;0.70;89.96;101930.19;1814175;78;21017;-36
2021/01/04 06:28:15;;;;;;;65.97;29.77;;;;;;;0.72;90.04;101926.03;1821763;78;21011;-37
2021/01/04 06:30:44;;;;;;;68.62;30.05;;;;;;;0.71;90.14;101921.31;1822519;78;20921;-36
2021/01/04 06:33:19;;;;;;;66.77;31.33;;;;;;;0.68;90.21;101919.05;1822576;78;21356;-36
2021/01/04 06:35:47;;;;;;;;;;;;;;;0.68;90.29;101915.23;1825135;78;21007;-35
2021/01/04 06:38:27;;;;;;;66.22;29.50;;;;;;;0.68;90.34;101915.23;1822527;78;20136;-36
2021/01/04 06:40:57;;;;;;;70.40;31.05;;;;;;;0.66;90.49;101913.02;1822503;78;21126;-37
2021/01/04 06:43:33;;;;;;;66.53;30.05;;;;;;;0.65;90.56;101910.84;1822701;78;21486;-37
2021/01/04 06:46:32;;;;;;;63.35;29.05;;;;;;;0.66;90.50;101906.22;1822648;78;21463;-37
2021/01/04 06:49:18;;;;;;;61.83;28.73;;;;;;;0.72;90.32;101906.91;1853590;77;22661;-34
2021/01/04 06:51:58;;;;;;;59.67;26.50;;;;;;;0.66;90.28;101913.87;1825622;78;21034;-34
2021/01/04 06:55:07;;;;;;;57.25;25.75;;;;;;;0.69;90.17;101899.13;1825637;78;22414;-37
2021/01/04 06:58:21;;;;;;;52.15;24.95;;;;;;;0.71;90.05;101906.44;1825584;78;20946;-38
2021/01/04 07:01:41;;;;;;;52.17;26.12;;;;;;;0.71;90.05;101898.80;1825422;78;21014;-38
2021/01/04 07:04:24;;;;;;;59.15;26.90;;;;;;;0.71;90.02;101903.47;1825546;78;21037;-36
2021/01/04 07:07:14;;;;;;;52.90;27.25;;;;;;;0.71;89.91;101902.20;1825526;78;20967;-36
2021/01/04 07:10:25;;;;;;;54.23;25.32;;;;;;;0.71;90.02;101898.80;1794224;78;22256;-36
2021/01/04 07:13:27;;;;;;;62.30;28.27;;;;;;;0.73;90.05;101902.28;1825560;78;20978;-36
2021/01/04 07:16:19;;;;;;;63.52;28.62;;;;;;;0.76;89.97;101890.06;1825628;78;20954;-35
2021/01/04 07:19:34;;;;;;;53.50;27.05;;;;;;;0.76;89.66;101884.57;1825539;78;20934;-37
2021/01/04 07:22:10;;;;;;;50.90;25.95;;;;;;;0.78;89.62;101891.88;1825693;78;20971;-38
2021/01/04 07:25:01;;;;;;;50.25;25.57;;;;;;;0.80;89.06;101884.31;1824819;78;21206;-35
2021/01/04 07:27:48;;;;;;;45.58;23.38;;;;;;;0.75;88.97;101880.28;1810100;78;21009;-37
2021/01/04 07:30:35;;;;;;;;;;;;;;;0.75;88.91;101882.83;1828314;78;21588;-36
2021/01/04 07:33:08;;;;;;;34.55;17.42;;;;;;;0.73;88.76;101880.61;1825743;78;20144;-38
2021/01/04 07:35:46;;;;;;;42.23;21.73;;;;;;;0.73;88.41;101873.35;1825053;78;21026;-36
2021/01/04 07:38:37;;;;;;;39.27;21.30;;;;;;;0.69;88.07;101867.27;1824923;78;21196;-37
2021/01/04 07:41:53;;;;;;;44.03;22.80;;;;;;;0.66;87.90;101865.86;1825550;78;21006;-37
2021/01/04 07:44:33;;;;;;;45.10;23.92;;;;;;;0.65;88.05;101863.70;1825600;78;21089;-35
2021/01/04 07:47:28;;;;;;;47.70;24.55;;;;;;;0.66;88.07;101867.13;1825593;78;20966;-37
2021/01/04 07:50:24;;;;;;;46.02;23.18;;;;;;;0.66;88.10;101882.01;1825122;78;20938;-35
2021/01/04 07:53:21;;;;;;;48.50;26.20;;;;;;;0.69;88.05;101862.17;1825768;78;21203;-36
2021/01/04 07:56:33;;;;;;;42.85;22.87;;;;;;;0.69;88.14;101880.02;1825412;78;20963;-37
2021/01/04 07:59:31;;;;;;;39.35;21.57;;;;;;;0.68;88.13;101867.66;1825295;78;20970;-36
2021/01/04 08:02:55;;;;;;;35.83;20.97;;;;;;;0.68;88.16;101864.25;1825078;78;20978;-36
2021/01/04 08:05:38;;;;;;;35.63;20.12;;;;;;;0.72;87.98;101871.22;1825080;78;20990;-38
2021/01/04 08:08:36;;;;;;;42.58;21.90;;;;;;;0.66;87.99;101874.78;1824844;78;21209;-38
2021/01/04 08:11:19;;;;;;;37.08;20.92;;;;;;;0.66;88.03;101879.88;1824788;78;20927;-39
2021/01/04 08:14:11;;;;;;;40.65;21.85;;;;;;;0.63;88.07;101888.24;1824917;78;21025;-38
2021/01/04 08:16:44;;;;;;;36.90;21.07;;;;;;;0.66;88.09;101879.45;1824989;78;21397;-37
2021/01/04 08:19:12;;;;;;;40.80;22.48;;;;;;;0.61;88.12;101880.05;1824997;78;20915;-37
2021/01/04 08:22:04;;;;;;;37.78;22.02;;;;;;;0.60;88.12;101894.87;1824957;78;21197;-38
2021/01/04 08:24:42;;;;;;;41.60;23.07;;;;;;;0.56;88.19;101902.38;1823256;78;21038;-36
2021/01/04 08:27:32;;;;;;;50.10;23.52;;;;;;;0.52;88.29;101902.19;1824894;78;21034;-36
2021/01/04 08:30:09;;;;;;;42.33;22.00;;;;;;;0.51;88.42;101898.75;1824890;78;20962;-36
2021/01/04 08:33:17;;;;;;;38.90;21.73;;;;;;;0.47;88.42;101889.61;1824966;78;20954;-37
2021/01/04 08:35:46;;;;;;;41.20;22.35;;;;;;;0.46;88.39;101884.05;1824875;78;22542;-36
2021/01/04 08:38:29;;;;;;;38.42;20.97;;;;;;;0.46;88.41;101883.66;1825005;78;20927;-37
2021/01/04 08:41:09;;;;;;;42.62;23.65;;;;;;;0.43;88.63;101881.83;1824998;78;21065;-37
2021/01/04 08:43:42;;;;;;;39.98;21.02;;;;;;;0.46;88.52;101883.66;1824900;78;20864;-36
2021/01/04 08:46:27;;;;;;;39.92;21.85;;;;;;;0.47;88.53;101873.05;1825070;78;21908;-38
2021/01/04 08:48:59;;;;;;;40.83;21.77;;;;;;;0.49;88.53;101873.60;1819952;78;21199;-36
2021/01/04 08:51:33;;;;;;;40.78;22.65;;;;;;;0.52;88.27;101885.62;1807318;79;21425;-34
2021/01/04 08:54:31;;;;;;;37.70;20.48;;;;;;;0.54;88.35;101879.77;1810404;77;22715;-35
2021/01/04 08:57:19;;;;;;;34.60;18.77;;;;;;;0.53;88.27;101888.22;1782388;80;20963;-34
2021/01/04 09:00:00;;;;;;;35.90;19.25;;;;;;;0.57;88.17;101886.70;1782367;80;21198;-36
2021/01/04 09:02:41;;;;;;;43.68;22.67;;;;;;;0.56;88.19;101881.13;1782271;80;20884;-34
2021/01/04 09:05:13;;;;;;;38.45;20.30;;;;;;;0.58;87.98;101883.34;1782406;79;20912;-35
2021/01/04 09:07:53;;;;;;;39.95;21.12;;;;;;;0.57;87.85;101879.91;1782280;80;21525;-35
2021/01/04 09:10:24;;;;;;;40.83;22.10;;;;;;;0.58;87.85;101894.81;1782409;80;21501;-36
2021/01/04 09:12:56;;;;;;;40.67;22.22;;;;;;;0.57;87.81;101890.10;1781890;80;21082;-36
2021/01/04 09:15:29;;;;;;;42.25;21.07;;;;;;;0.57;87.74;101879.05;1752114;80;20967;-35
2021/01/04 09:18:05;;;;;;;42.35;23.57;;;;;;;0.56;87.75;101879.44;1782311;80;21026;-36
2021/01/04 09:20:49;;;;;;;38.10;20.12;;;;;;;0.56;87.69;101866.70;1782231;80;21094;-36
2021/01/04 09:23:27;;;;;;;31.87;19.12;;;;;;;0.57;87.57;101868.44;1782377;80;20951;-37
2021/01/04 09:26:15;;;;;;;36.90;21.10;;;;;;;0.60;87.72;101870.66;1782275;80;21141;-35
2021/01/04 09:28:51;;;;;;;35.25;20.08;;;;;;;0.64;87.62;101863.64;1782196;80;20990;-36
2021/01/04 09:31:19;;;;;;;31.87;18.45;;;;;;;0.63;87.44;101865.30;1782347;80;20983;-37
2021/01/04 09:33:51;;;;;;;32.95;18.45;;;;;;;0.65;87.37;101860.29;1782232;80;20963;-35
2021/01/04 09:36:22;;;;;;;34.48;19.42;;;;;;;0.64;87.32;101854.72;1782327;80;20907;-37
2021/01/04 09:38:51;;;;;;;37.75;19.02;;;;;;;0.63;87.07;101851.28;1782310;80;21490;-37
2021/01/04 09:41:19;;;;;;;34.25;18.25;;;;;;;0.53;86.98;101856.37;1751896;80;21541;-36
2021/01/04 09:43:47;;;;;;;37.25;19.07;;;;;;;0.49;87.07;101858.31;1782298;80;20994;-35
2021/01/04 09:46:29;;;;;;;36.77;21.05;;;;;;;0.45;87.10;101860.64;1782110;80;20990;-35
2021/01/04 09:49:04;;;;;;;41.73;21.97;;;;;;;0.40;87.12;101849.84;1781426;80;21156;-35
2021/01/04 09:51:42;;;;;;;37.33;19.42;;;;;;;0.37;87.32;101842.45;1782066;80;21263;-34
2021/01/04 09:54:15;;;;;;;38.98;20.05;;;;;;;0.38;87.26;101842.91;1769761;80;21011;-36
2021/01/04 09:56:43;;;;;;;37.13;19.07;;;;;;;0.37;87.36;101834.41;1768345;81;21002;-36
2021/01/04 09:59:21;;;;;;;37.63;18.15;;;;;;;0.38;87.34;101836.16;1768547;81;21018;-36
2021/01/04 10:01:55;;;;;;;34.23;18.00;;;;;;;0.36;87.28;101826.69;1768593;80;21086;-36
2021/01/04 10:04:32;;;;;;;37.03;18.02;;;;;;;0.36;87.30;101835.61;1768439;81;20975;-35
2021/01/04 10:07:04;;;;;;;36.90;18.50;;;;;;;0.36;87.31;101829.23;1768072;81;21014;-36
2021/01/04 10:09:35;;;;;;;37.48;19.15;;;;;;;0.36;87.41;101829.23;1768022;80;21015;-35
2021/01/04 10:12:05;;;;;;;37.95;19.98;;;;;;;0.38;87.48;101828.91;1767820;81;21567;-37
2021/01/04 10:14:33;;;;;;;38.17;19.45;;;;;;;0.39;87.52;101832.80;1768020;81;21011;-35
2021/01/04 10:17:02;;;;;;;39.38;20.23;;;;;;;0.46;87.53;101833.08;1768035;80;21191;-35
2021/01/04 10:19:43;;;;;;;38.40;20.72;;;;;;;0.53;87.52;101837.67;1767944;81;20924;-37
2021/01/04 10:22:17;;;;;;;37.42;19.62;;;;;;;0.58;87.42;101842.56;1768064;81;20920;-36
2021/01/04 10:25:00;;;;;;;42.05;20.08;;;;;;;0.61;87.30;101853.28;1768276;81;21130;-36
2021/01/04 10:27:29;;;;;;;43.13;20.90;;;;;;;0.61;87.33;101852.89;1753135;81;20980;-35
2021/01/04 10:30:00;;;;;;;40.38;21.30;;;;;;;0.62;87.23;101856.30;1764892;81;21365;-37
2021/01/04 10:32:35;;;;;;;45.38;22.60;;;;;;;0.64;87.26;101857.27;1767937;81;21422;-37
2021/01/04 10:35:04;;;;;;;41.53;19.00;;;;;;;0.64;87.16;101863.64;1768212;81;21020;-35
2021/01/04 10:37:50;;;;;;;50.98;20.15;;;;;;;0.66;87.22;101849.29;1767809;81;20999;-35
2021/01/04 10:40:21;;;;;;;47.95;24.37;;;;;;;0.69;87.17;101848.14;1768086;81;21549;-36
2021/01/04 10:43:01;;;;;;;110.12;27.00;;;;;;;0.68;86.86;101848.53;1767942;81;21476;-36
2021/01/04 10:45:38;;;;;;;97.60;26.87;;;;;;;0.66;86.93;101845.05;1767951;81;20908;-35
2021/01/04 10:48:17;;;;;;;148.28;31.77;;;;;;;0.64;86.91;101847.08;1768014;81;21023;-35
2021/01/04 10:50:47;;;;;;;70.55;28.00;;;;;;;0.65;87.04;101841.17;1767929;80;20967;-36
2021/01/04 10:53:35;;;;;;;96.80;28.67;;;;;;;0.68;86.85;101840.89;1768448;80;20976;-38
2021/01/04 10:56:11;;;;;;;76.05;29.87;;;;;;;0.67;86.88;101833.19;1767963;81;21478;-36
2021/01/04 10:58:53;;;;;;;63.95;27.90;;;;;;;0.67;86.84;101833.19;1767922;81;21462;-35
2021/01/04 11:01:27;;;;;;;53.30;26.27;;;;;;;0.62;86.64;101838.45;1767966;81;20983;-35
2021/01/04 11:04:12;;;;;;;63.40;27.00;;;;;;;0.59;86.69;101825.20;1767933;80;21380;-35
2021/01/04 11:06:43;;;;;;;55.78;27.30;;;;;;;0.57;86.63;101830.21;1768060;81;21007;-36
2021/01/04 11:09:23;;;;;;;56.80;26.25;;;;;;;0.56;86.66;101831.02;1767978;81;22028;-36
2021/01/04 11:12:05;;;;;;;57.67;26.00;;;;;;;0.54;86.57;101827.53;1767809;81;21193;-36
2021/01/04 11:14:33;;;;;;;65.40;28.45;;;;;;;0.49;86.53;101822.64;1762629;81;20947;-36
2021/01/04 11:17:21;;;;;;;66.10;27.95;;;;;;;0.47;86.47;101831.89;1767846;81;21151;-36
2021/01/04 11:19:50;;;;;;;66.50;29.25;;;;;;;0.45;86.55;101830.06;1767892;80;21015;-36
2021/01/04 11:22:25;;;;;;;65.08;27.80;;;;;;;0.41;86.50;101841.81;1768003;81;21273;-38
2021/01/04 11:24:55;;;;;;;68.93;28.63;;;;;;;0.40;86.63;101834.55;1768168;81;21506;-36
2021/01/04 11:27:24;;;;;;;71.07;30.08;;;;;;;0.41;86.64;101823.97;1767995;80;21034;-36
2021/01/04 11:29:52;;;;;;;69.87;28.90;;;;;;;0.40;86.64;101818.41;1767868;81;20967;-36
2021/01/04 11:32:21;;;;;;;66.80;29.23;;;;;;;0.39;86.54;101812.42;1767882;80;20967;-35
2021/01/04 11:34:51;;;;;;;65.85;27.77;;;;;;;0.36;86.57;101814.84;1767958;81;21374;-35
2021/01/04 11:37:20;;;;;;;63.65;27.00;;;;;;;0.33;86.55;101824.00;1767937;81;20964;-36
2021/01/04 11:39:50;;;;;;;72.05;30.95;;;;;;;0.27;86.70;101824.62;1767840;81;20936;-36
2021/01/04 11:42:18;;;;;;;73.57;29.98;;;;;;;0.24;86.79;101825.34;1767892;81;20999;-36
2021/01/04 11:44:47;;;;;;;70.45;31.12;;;;;;;0.22;86.84;101831.16;1767991;81;21055;-35
2021/01/04 11:47:18;;;;;;;77.00;31.02;;;;;;;0.21;86.92;101832.84;1767949;81;22107;-37
2021/01/04 11:49:47;;;;;;;75.03;30.88;;;;;;;0.25;86.96;101832.17;1767876;81;21011;-35
2021/01/04 11:52:17;;;;;;;72.55;29.30;;;;;;;0.26;86.99;101825.00;1767894;81;20983;-36
2021/01/04 11:54:45;;;;;;;67.65;28.25;;;;;;;0.24;87.00;101829.55;1778887;80;20971;-37
2021/01/04 11:57:13;;;;;;;63.65;28.10;;;;;;;0.22;87.06;101831.16;1782564;80;20991;-36
2021/01/04 11:59:42;;;;;;;61.77;26.87;;;;;;;0.21;87.13;101830.30;1782395;80;21200;-36
2021/01/04 12:02:12;;;;;;;59.13;27.25;;;;;;;0.19;87.14;101831.91;1782388;80;20923;-36
2021/01/04 12:04:41;;;;;;;63.30;26.48;;;;;;;0.16;86.96;101821.58;1782386;80;20880;-37
2021/01/04 12:07:09;;;;;;;60.40;25.48;;;;;;;0.12;87.16;101829.85;1782440;80;20904;-38
2021/01/04 12:09:38;;;;;;;61.53;25.77;;;;;;;0.11;87.17;101826.83;1782445;80;20916;-38
2021/01/04 12:12:08;;;;;;;58.65;23.73;;;;;;;0.10;87.17;101830.19;1782495;80;22445;-35
2021/01/04 12:14:36;;;;;;;62.15;25.25;;;;;;;0.05;87.21;101828.72;1782319;80;21485;-36
2021/01/04 12:17:07;;;;;;;58.80;24.30;;;;;;;0.02;87.28;101826.42;1782439;80;21015;-38
2021/01/04 12:19:35;;;;;;;53.63;24.65;;;;;;;-0.01;87.54;101828.41;1782350;80;20979;-37
2021/01/04 12:22:07;;;;;;;49.53;22.02;;;;;;;0.00;87.62;101823.81;1782555;80;21490;-36